KMEM/MEM METAR and TAF weather

Enter ICAO airport designator
Station Type Date Time Source
KMEM METAR 2019/04/20 21:54 UTC NOAA

KMEM 202154Z 30012G19KT 10SM CLR 20/01 A2992 RMK AO2 SLP131 T02000011 $


Station Type Date Time Source
KMEM Decoded METAR 2019/04/20 21:54 UTC NOAA

MEMPHIS INTERNATIONAL AIRPORT , TN, United States (KMEM) 35-02N 089-59W 86M
Apr 20, 2019 - 05:54 PM EDT / 2019.04.20 2154 UTC
Wind: from the WNW (300 degrees) at 14 MPH (12 KT) gusting to 22 MPH (19 KT):0
Visibility: 10 mile(s):0
Sky conditions: clear
Temperature: 68.0 F (20.0 C)
Dew Point: 34.0 F (1.1 C)
Relative Humidity: 28%
Pressure (altimeter): 29.92 in. Hg (1013 hPa)
ob: KMEM 202154Z 30012G19KT 10SM CLR 20/01 A2992 RMK AO2 SLP131 T02000011
cycle: 22

Station Type Date Time Source
KMEM TAF 2019/04/20 21:30 UTC NOAA

TAF
AMD KMEM 202127Z 2021/2124 30013G20KT P6SM SKC
FM202300 29007KT P6SM SKC
FM210300 21004KT P6SM SKC

Example: see airport list